Time;durP1;ratioP1;P1;durP2;ratioP2;P2;SDS_P1;SDS_P2;PMS_P1;PMS_P2;Temp;Humidity;BMP_temperature;BMP_pressure;BME280_temperature;BME280_humidity;BME280_pressure;Samples;Min_cycle;Max_cycle;Signal;HPM_P1;HPM_P2
2023/10/21 00:00:35;;;;;;;27.50;19.65;;;;;;;12.48;91.11;95427.00;10387041;28;20045;-71
2023/10/21 00:06:05;;;;;;;27.23;19.73;;;;;;;12.43;90.93;95431.06;10401166;28;20061;-71
2023/10/21 00:11:26;;;;;;;27.55;19.13;;;;;;;12.43;91.04;95445.03;10399873;28;20091;-70
2023/10/21 00:16:48;;;;;;;28.80;19.58;;;;;;;12.43;90.70;95442.97;10386103;28;20088;-71
2023/10/21 00:22:10;;;;;;;25.25;18.92;;;;;;;12.38;90.62;95468.72;10399865;28;20400;-70
2023/10/21 00:27:30;;;;;;;28.77;20.20;;;;;;;12.36;91.21;95471.47;10385818;28;20156;-71
2023/10/21 00:32:51;;;;;;;26.33;18.45;;;;;;;12.39;91.48;95470.13;10399410;28;20076;-71
2023/10/21 00:38:12;;;;;;;22.88;17.73;;;;;;;12.44;91.69;95474.44;10399329;28;20537;-70
2023/10/21 00:43:40;;;;;;;23.42;17.17;;;;;;;12.47;92.03;95482.25;10398999;28;20073;-71
2023/10/21 00:49:03;;;;;;;26.85;17.42;;;;;;;12.54;92.01;95486.59;10385486;28;20044;-71
2023/10/21 00:54:27;;;;;;;22.95;16.58;;;;;;;12.61;92.06;95473.47;10398728;28;20419;-71
2023/10/21 00:59:47;;;;;;;;;;;;;;;12.68;91.80;95477.13;10385650;28;20073;-70
2023/10/21 01:05:09;;;;;;;21.33;15.30;;;;;;;12.68;91.76;95483.44;10405128;28;19990;-71
2023/10/21 01:10:30;;;;;;;20.92;15.73;;;;;;;12.71;91.45;95504.47;10392285;28;20046;-71
2023/10/21 01:15:51;;;;;;;18.58;13.93;;;;;;;12.72;91.94;95536.69;10378550;28;20564;-71
2023/10/21 01:21:12;;;;;;;19.60;13.40;;;;;;;12.68;91.78;95525.41;10378254;28;20041;-70
2023/10/21 01:26:33;;;;;;;18.33;12.80;;;;;;;12.64;91.83;95549.78;10405292;28;20100;-71
2023/10/21 01:31:54;;;;;;;19.85;13.15;;;;;;;12.60;92.15;95572.78;10405018;28;20100;-70
2023/10/21 01:37:15;;;;;;;17.25;12.43;;;;;;;12.52;92.35;95566.97;10405056;28;20045;-71
2023/10/21 01:42:37;;;;;;;15.80;11.20;;;;;;;12.51;92.39;95582.34;10404816;28;20053;-71
2023/10/21 01:47:58;;;;;;;16.13;12.20;;;;;;;12.47;92.38;95582.25;10391296;28;20075;-69
2023/10/21 01:53:19;;;;;;;17.92;13.30;;;;;;;12.43;92.60;95588.44;10392464;28;20045;-72
2023/10/21 01:58:40;;;;;;;16.83;12.23;;;;;;;12.43;92.76;95598.94;10396220;28;20486;-71
2023/10/21 02:04:00;;;;;;;18.20;12.85;;;;;;;12.41;92.54;95596.09;10390812;28;20065;-71
2023/10/21 02:09:21;;;;;;;18.17;12.15;;;;;;;12.31;92.42;95594.44;10389885;28;20072;-71
2023/10/21 02:14:42;;;;;;;16.45;12.00;;;;;;;12.21;92.82;95599.78;10388966;28;20197;-70
2023/10/21 02:20:03;;;;;;;16.13;11.63;;;;;;;12.12;92.97;95614.91;10403082;28;20061;-71
2023/10/21 02:25:24;;;;;;;15.90;11.23;;;;;;;12.07;93.05;95627.38;10389395;28;20068;-71
2023/10/21 02:30:45;;;;;;;16.45;11.73;;;;;;;12.05;93.20;95630.06;10403052;28;20052;-71
2023/10/21 02:36:05;;;;;;;15.23;11.15;;;;;;;11.99;93.26;95627.84;10417454;28;20049;-71
2023/10/21 02:41:28;;;;;;;15.47;11.53;;;;;;;12.00;93.12;95631.34;10362852;28;20568;-70
2023/10/21 02:46:49;;;;;;;16.10;11.13;;;;;;;12.01;93.22;95635.56;10401981;28;20156;-71
2023/10/21 02:52:10;;;;;;;13.27;10.10;;;;;;;12.01;92.95;95652.34;10402272;28;20041;-71
2023/10/21 02:57:31;;;;;;;14.65;10.73;;;;;;;11.91;92.96;95666.75;10401907;28;20065;-71
2023/10/21 03:02:52;;;;;;;14.80;10.82;;;;;;;11.73;92.90;95668.97;10388188;28;20487;-70
2023/10/21 03:08:13;;;;;;;13.23;10.13;;;;;;;11.61;93.64;95666.53;10401603;28;20043;-71
2023/10/21 03:13:35;;;;;;;16.13;11.30;;;;;;;11.48;93.06;95689.88;10401341;28;20046;-71
2023/10/21 03:18:56;;;;;;;15.77;10.88;;;;;;;11.31;93.36;95693.53;10401370;28;20121;-71
2023/10/21 03:24:17;;;;;;;16.42;11.52;;;;;;;11.28;93.69;95678.06;10400834;28;20137;-71
2023/10/21 03:29:39;;;;;;;16.38;10.77;;;;;;;11.32;94.13;95683.78;10387348;28;20499;-71
2023/10/21 03:35:01;;;;;;;18.67;12.05;;;;;;;11.34;94.18;95698.53;10400451;28;20499;-71
2023/10/21 03:40:21;;;;;;;15.13;11.13;;;;;;;11.38;94.38;95709.09;10415399;28;20045;-71
2023/10/21 03:45:42;;;;;;;16.70;11.68;;;;;;;11.41;94.17;95719.00;10400175;28;20117;-70
2023/10/21 03:51:05;;;;;;;17.95;12.32;;;;;;;11.40;94.22;95717.56;10400518;28;20114;-71
2023/10/21 03:56:26;;;;;;;17.20;12.75;;;;;;;11.34;94.15;95731.34;10386781;28;20127;-71
2023/10/21 04:01:47;;;;;;;17.33;11.98;;;;;;;11.26;94.01;95745.03;10385948;28;20076;-71
2023/10/21 04:07:07;;;;;;;18.05;12.32;;;;;;;11.23;94.36;95749.13;10386205;28;20459;-71
2023/10/21 04:12:29;;;;;;;16.90;12.18;;;;;;;11.24;94.49;95768.03;10399763;28;20119;-71
2023/10/21 04:17:50;;;;;;;17.17;12.10;;;;;;;11.29;94.48;95785.63;10399680;28;20049;-71
2023/10/21 04:23:12;;;;;;;17.50;11.95;;;;;;;11.21;94.36;95791.66;10399251;28;20038;-70
2023/10/21 04:28:33;;;;;;;15.05;11.35;;;;;;;11.11;94.30;95800.41;10386392;28;20099;-71
2023/10/21 04:33:54;;;;;;;15.75;11.07;;;;;;;11.00;94.64;95807.00;10386172;28;20084;-70
2023/10/21 04:39:16;;;;;;;15.25;10.70;;;;;;;10.91;94.20;95818.53;10391214;28;20065;-71
2023/10/21 04:44:37;;;;;;;15.48;11.27;;;;;;;10.75;94.09;95818.66;10421835;28;20491;-71
2023/10/21 04:49:58;;;;;;;15.20;11.40;;;;;;;10.64;94.02;95825.25;10406810;28;20044;-71
2023/10/21 04:55:20;;;;;;;17.85;10.93;;;;;;;10.53;94.36;95833.25;10406767;28;20049;-71
2023/10/21 05:00:42;;;;;;;15.98;11.30;;;;;;;10.42;94.40;95830.69;10393305;28;20049;-70
2023/10/21 05:06:04;;;;;;;16.30;11.18;;;;;;;10.33;94.49;95835.28;10405870;28;20077;-71
2023/10/21 05:11:25;;;;;;;14.57;10.60;;;;;;;10.24;94.73;95847.47;10393010;28;20494;-71
2023/10/21 05:16:46;;;;;;;13.93;9.38;;;;;;;10.29;95.44;95857.41;10405944;28;20076;-71
2023/10/21 05:22:07;;;;;;;13.32;8.55;;;;;;;10.34;95.21;95858.31;10420411;28;20502;-71
2023/10/21 05:27:27;;;;;;;14.05;10.27;;;;;;;10.42;94.99;95878.13;10391421;28;20116;-71
2023/10/21 05:32:48;;;;;;;14.98;10.63;;;;;;;10.34;94.25;95884.13;10405205;28;20065;-71
2023/10/21 05:38:09;;;;;;;12.52;9.18;;;;;;;10.30;94.06;95911.84;10377744;28;20427;-71
2023/10/21 05:43:30;;;;;;;12.68;8.77;;;;;;;10.30;94.50;95925.78;10404618;28;20051;-70
2023/10/21 05:48:51;;;;;;;13.77;9.43;;;;;;;10.50;94.78;95937.72;10377304;28;20068;-70
2023/10/21 05:54:12;;;;;;;11.27;8.85;;;;;;;11.45;93.38;95934.94;10390562;28;20065;-71
2023/10/21 05:59:32;;;;;;;13.73;10.05;;;;;;;11.51;93.14;95956.81;10404222;28;20045;-71
2023/10/21 06:04:53;;;;;;;13.25;8.05;;;;;;;11.83;92.69;95973.28;10390224;28;20415;-71
2023/10/21 06:10:14;;;;;;;9.77;7.25;;;;;;;12.35;92.52;95984.78;10403889;28;20133;-71
2023/10/21 06:15:35;;;;;;;13.88;8.35;;;;;;;19.19;87.26;95998.16;10387559;28;20064;-71
2023/10/21 06:20:56;;;;;;;10.60;6.80;;;;;;;25.34;76.20;96015.44;10403404;28;20045;-71
2023/10/21 06:26:17;;;;;;;8.77;5.88;;;;;;;29.30;66.24;96004.66;10403166;28;20045;-71
2023/10/21 06:31:38;;;;;;;6.68;5.15;;;;;;;32.42;58.73;96015.38;10402911;28;20084;-71
2023/10/21 06:36:59;;;;;;;6.82;5.07;;;;;;;34.82;51.41;96023.47;10389230;28;20046;-70
2023/10/21 06:42:20;;;;;;;6.53;4.90;;;;;;;36.71;43.11;96037.72;10402373;28;20037;-71
2023/10/21 06:47:41;;;;;;;5.65;4.78;;;;;;;38.24;35.48;96040.00;10402232;28;20459;-72
2023/10/21 06:53:03;;;;;;;5.90;4.25;;;;;;;39.77;28.80;96055.22;10416620;28;20045;-71
2023/10/21 06:58:26;;;;;;;6.32;4.38;;;;;;;40.60;24.21;96054.63;10401666;28;20042;-72
2023/10/21 07:03:47;;;;;;;3.65;3.22;;;;;;;42.25;21.86;96057.97;10388011;28;20522;-72
2023/10/21 07:09:08;;;;;;;3.35;2.95;;;;;;;43.16;19.25;96066.91;10401385;28;20488;-72
2023/10/21 07:14:29;;;;;;;4.35;2.97;;;;;;;43.49;16.89;96064.66;10401217;28;20076;-72
2023/10/21 07:19:51;;;;;;;3.50;2.90;;;;;;;44.51;15.79;96055.91;10387606;28;20464;-73
2023/10/21 07:25:13;;;;;;;3.72;3.22;;;;;;;45.03;15.28;96073.00;10416093;28;20456;-73
2023/10/21 07:30:36;;;;;;;3.10;2.55;;;;;;;45.42;14.09;96083.25;10401435;28;20579;-74
2023/10/21 07:35:57;;;;;;;4.65;3.65;;;;;;;45.33;13.53;96095.16;10415637;28;20124;-74
2023/10/21 07:41:19;;;;;;;3.00;2.70;;;;;;;44.78;12.56;96098.22;10400428;28;20196;-74
2023/10/21 07:46:40;;;;;;;4.18;2.50;;;;;;;45.00;12.49;96103.53;10400392;28;20501;-74
2023/10/21 07:52:00;;;;;;;2.45;2.20;;;;;;;46.12;11.68;96113.78;10386722;28;20479;-74
2023/10/21 07:57:21;;;;;;;2.30;1.90;;;;;;;47.64;10.93;96126.06;10414833;28;20129;-74
2023/10/21 08:02:42;;;;;;;3.28;1.95;;;;;;;47.98;10.61;96126.88;10400117;28;20078;-74
2023/10/21 08:08:04;;;;;;;2.50;1.75;;;;;;;48.15;9.97;96132.38;10386201;28;20045;-74
2023/10/21 08:13:27;;;;;;;2.55;1.50;;;;;;;48.55;9.63;96139.06;10419220;28;20172;-74
2023/10/21 08:18:50;;;;;;;3.22;1.48;;;;;;;49.96;9.72;96144.47;10422921;28;20045;-74
2023/10/21 08:24:13;;;;;;;3.25;1.45;;;;;;;50.82;8.57;96152.19;10422714;28;20041;-75
2023/10/21 08:29:34;;;;;;;1.45;0.65;;;;;;;51.08;8.31;96160.19;10407913;28;20065;-75
2023/10/21 08:34:56;;;;;;;1.17;0.50;;;;;;;50.91;8.04;96164.44;10393905;28;20077;-75
2023/10/21 08:40:18;;;;;;;1.60;0.50;;;;;;;50.95;7.91;96178.78;10422162;28;20050;-74
2023/10/21 08:45:39;;;;;;;1.15;0.50;;;;;;;51.01;8.16;96195.88;10421675;28;20068;-74
2023/10/21 08:51:09;;;;;;;0.55;0.30;;;;;;;51.84;7.76;96199.19;10395483;28;20087;-74
2023/10/21 08:56:33;;;;;;;0.80;0.20;;;;;;;51.70;7.52;96207.56;10407075;28;20076;-75
2023/10/21 09:01:53;;;;;;;0.40;0.20;;;;;;;51.35;7.32;96229.66;10392830;28;20128;-74
2023/10/21 09:07:14;;;;;;;0.43;0.20;;;;;;;51.62;6.94;96218.16;10403768;28;20120;-74
2023/10/21 09:12:37;;;;;;;0.25;0.10;;;;;;;51.46;7.00;96220.19;10418213;28;20072;-74
2023/10/21 09:17:59;;;;;;;1.52;0.15;;;;;;;50.32;7.37;96218.94;10376627;28;20124;-74
2023/10/21 09:23:20;;;;;;;1.48;0.10;;;;;;;49.81;7.60;96224.84;10389194;28;20065;-75
2023/10/21 09:28:41;;;;;;;1.35;0.10;;;;;;;48.86;7.75;96228.09;10417650;28;20041;-76
2023/10/21 09:34:02;;;;;;;0.20;0.10;;;;;;;50.11;7.72;96230.22;10417793;28;20492;-76
2023/10/21 09:39:24;;;;;;;1.27;0.00;;;;;;;49.08;7.27;96242.03;10402629;28;20077;-75
2023/10/21 09:44:45;;;;;;;0.20;0.08;;;;;;;47.74;8.19;96252.03;10375171;28;20124;-75
2023/10/21 09:50:12;;;;;;;0.20;0.10;;;;;;;48.24;8.13;96241.59;10388644;28;20050;-74
2023/10/21 09:55:33;;;;;;;1.80;0.10;;;;;;;48.88;7.81;96257.47;10417010;28;20065;-75
2023/10/21 10:00:54;;;;;;;0.10;0.00;;;;;;;49.30;7.60;96275.03;10402128;28;20045;-75
2023/10/21 10:06:15;;;;;;;0.00;0.00;;;;;;;46.95;8.04;96254.41;10352321;28;1088205;-74
2023/10/21 10:11:36;;;;;;;2.47;0.05;;;;;;;46.83;8.52;96243.84;10390155;28;20164;-76
2023/10/21 10:16:57;;;;;;;0.32;0.20;;;;;;;47.61;7.91;96243.81;10390218;28;20144;-74
2023/10/21 10:22:19;;;;;;;0.20;0.00;;;;;;;47.65;7.94;96242.66;10403613;28;20121;-74
2023/10/21 10:27:40;;;;;;;0.65;0.10;;;;;;;47.17;8.12;96251.38;10389476;28;20065;-75
2023/10/21 10:33:07;;;;;;;0.50;0.10;;;;;;;46.33;8.70;96248.06;10403191;28;20068;-74
2023/10/21 10:38:34;;;;;;;0.30;0.10;;;;;;;43.83;10.28;96254.75;10389299;28;20376;-74
2023/10/21 10:44:02;;;;;;;0.82;0.10;;;;;;;45.13;9.43;96256.78;10402604;28;20125;-75
2023/10/21 10:49:22;;;;;;;0.13;0.10;;;;;;;46.21;9.04;96261.06;10417014;28;20505;-75
2023/10/21 10:54:43;;;;;;;0.30;0.10;;;;;;;47.58;8.47;96277.41;10416772;28;20149;-75
2023/10/21 11:00:10;;;;;;;0.30;0.10;;;;;;;48.57;8.14;96265.38;10416362;28;20049;-75
2023/10/21 11:05:31;;;;;;;0.00;0.00;;;;;;;48.69;7.38;96276.59;10402281;28;20195;-75
2023/10/21 11:11:01;;;;;;;2.92;0.10;;;;;;;49.13;7.45;96272.53;10374135;28;20147;-75
2023/10/21 11:16:22;;;;;;;1.58;0.10;;;;;;;49.15;7.04;96269.38;10401338;28;20502;-76
2023/10/21 11:21:48;;;;;;;0.30;0.00;;;;;;;47.70;7.53;96276.13;10387165;28;20134;-75
2023/10/21 11:27:08;;;;;;;0.15;0.10;;;;;;;46.26;8.64;96276.78;10415486;28;20499;-73
2023/10/21 11:32:30;;;;;;;0.20;0.10;;;;;;;45.77;8.85;96277.97;10401040;28;20133;-73
2023/10/21 11:37:55;;;;;;;0.20;0.10;;;;;;;44.85;8.21;96292.50;10387821;28;20530;-73
2023/10/21 11:43:19;;;;;;;0.82;0.22;;;;;;;40.00;11.23;96288.59;10388082;28;20492;-72
2023/10/21 11:48:40;;;;;;;0.47;0.00;;;;;;;34.54;15.42;96309.63;10400005;28;20072;-72
2023/10/21 11:54:01;;;;;;;0.25;0.10;;;;;;;32.37;17.21;96320.22;10414898;28;20096;-73
2023/10/21 12:38:41;;;;;;;0.30;0.05;;;;;;;26.37;26.32;96360.94;10401953;28;20042;-72
2023/10/21 12:44:02;;;;;;;2.63;0.10;;;;;;;26.60;26.56;96358.41;10413876;28;20091;-71
2023/10/21 12:49:24;;;;;;;0.43;0.10;;;;;;;26.50;26.21;96357.16;10398833;28;20112;-71
2023/10/21 12:54:46;;;;;;;0.45;0.10;;;;;;;26.35;26.43;96361.69;10399541;28;20080;-71
2023/10/21 13:00:09;;;;;;;1.27;0.10;;;;;;;26.50;26.18;96359.31;10418701;28;20102;-70
2023/10/21 13:05:29;;;;;;;0.30;0.10;;;;;;;26.14;26.49;96367.00;10392147;28;20088;-71
2023/10/21 13:10:51;;;;;;;0.60;0.10;;;;;;;25.81;26.75;96366.78;10392572;28;20592;-70
2023/10/21 13:16:12;;;;;;;0.70;0.10;;;;;;;26.15;27.39;96356.28;10420515;28;20472;-70
2023/10/21 13:21:32;;;;;;;2.30;0.08;;;;;;;26.12;26.75;96343.47;10405840;28;20117;-71
2023/10/21 13:26:53;;;;;;;0.30;0.00;;;;;;;25.71;26.92;96341.22;10420214;28;20141;-70
2023/10/21 13:32:14;;;;;;;0.63;0.10;;;;;;;24.71;28.04;96338.81;10405482;28;20048;-71
2023/10/21 13:37:41;;;;;;;0.50;0.10;;;;;;;23.99;29.43;96356.50;10377761;28;20518;-71
2023/10/21 13:43:03;;;;;;;3.92;0.20;;;;;;;23.70;29.97;96344.59;10405675;28;20053;-70
2023/10/21 13:48:24;;;;;;;1.80;0.10;;;;;;;24.07;29.70;96357.91;10391492;28;20119;-70
2023/10/21 13:53:45;;;;;;;1.48;0.20;;;;;;;24.06;30.32;96350.78;10419327;28;20451;-70
2023/10/21 13:59:13;;;;;;;1.10;0.20;;;;;;;24.26;30.35;96353.47;10390361;28;20057;-70
2023/10/21 14:04:34;;;;;;;0.40;0.15;;;;;;;24.74;30.14;96351.63;10390940;28;20132;-70
2023/10/21 14:09:55;;;;;;;0.73;0.10;;;;;;;24.81;29.48;96361.56;10402591;28;20077;-70
2023/10/21 14:15:19;;;;;;;0.80;0.30;;;;;;;24.27;29.93;96372.00;10418552;28;20121;-71
2023/10/21 14:20:40;;;;;;;1.52;0.20;;;;;;;23.55;30.73;96377.44;10403833;28;20061;-70
2023/10/21 14:26:01;;;;;;;1.45;0.22;;;;;;;23.06;31.46;96380.44;10403326;28;20077;-70
2023/10/21 14:31:29;;;;;;;0.65;0.13;;;;;;;22.78;32.30;96372.69;10417690;28;20065;-70
2023/10/21 14:36:50;;;;;;;0.55;0.13;;;;;;;22.55;32.40;96389.06;10389604;28;20061;-70
2023/10/21 14:42:13;;;;;;;1.35;0.20;;;;;;;22.30;32.78;96381.97;10417224;28;20081;-70
2023/10/21 14:47:35;;;;;;;1.48;0.30;;;;;;;22.24;33.41;96379.13;10389355;28;20125;-70
2023/10/21 14:52:57;;;;;;;1.70;0.35;;;;;;;22.16;33.78;96374.16;10402201;28;20409;-70
2023/10/21 14:58:18;;;;;;;16.27;6.72;;;;;;;22.26;33.83;96379.84;10401623;28;20049;-70
2023/10/21 15:03:39;;;;;;;20.50;9.05;;;;;;;22.17;34.13;96377.69;10388002;28;20084;-70
2023/10/21 15:09:00;;;;;;;14.35;5.53;;;;;;;22.06;34.73;96381.94;10401473;28;20510;-71
2023/10/21 15:14:21;;;;;;;12.10;5.45;;;;;;;21.94;35.35;96388.31;10387696;28;20096;-70
2023/10/21 15:20:02;;;;;;;10.95;4.38;;;;;;;21.76;35.81;96391.84;10415451;28;20042;-71
2023/10/21 15:25:23;;;;;;;5.30;2.20;;;;;;;21.62;36.08;96395.34;10415558;28;20479;-70
2023/10/21 15:30:44;;;;;;;8.73;2.60;;;;;;;21.39;36.98;96397.41;10400902;28;20108;-71
2023/10/21 15:36:05;;;;;;;7.30;2.40;;;;;;;21.05;37.54;96394.41;10415228;28;20069;-70
2023/10/21 15:41:27;;;;;;;7.18;2.15;;;;;;;20.59;38.55;96398.38;10400356;28;20049;-70
2023/10/21 15:46:47;;;;;;;4.57;1.80;;;;;;;20.20;39.15;96400.88;10386609;28;20069;-70
2023/10/21 15:52:08;;;;;;;8.13;2.95;;;;;;;19.77;39.66;96413.19;10414895;28;20065;-71
2023/10/21 15:57:32;;;;;;;8.73;3.10;;;;;;;19.36;40.58;96421.91;10414867;28;20471;-70
2023/10/21 16:02:53;;;;;;;7.80;2.90;;;;;;;19.16;41.47;96439.34;10386480;28;20488;-70
2023/10/21 16:08:21;;;;;;;4.95;2.38;;;;;;;19.06;42.15;96444.16;10414509;28;20044;-70
2023/10/21 16:13:42;;;;;;;9.75;4.60;;;;;;;19.01;42.57;96453.97;10400978;28;20487;-70
2023/10/21 16:19:03;;;;;;;18.75;10.27;;;;;;;18.96;43.06;96467.34;10386132;28;20089;-70
2023/10/21 16:24:23;;;;;;;19.75;10.65;;;;;;;18.79;43.38;96474.16;10399368;28;20057;-70
2023/10/21 16:29:44;;;;;;;17.15;10.50;;;;;;;18.65;43.84;96482.41;10372125;28;20065;-71
2023/10/21 16:35:05;;;;;;;9.45;5.75;;;;;;;18.44;44.29;96482.06;10377199;28;20494;-70
2023/10/21 16:40:26;;;;;;;6.00;3.30;;;;;;;18.22;44.71;96479.56;10393623;28;20061;-71
2023/10/21 16:45:47;;;;;;;4.18;1.80;;;;;;;18.02;45.30;96479.19;10407011;28;20069;-70
2023/10/21 16:51:08;;;;;;;4.47;1.88;;;;;;;17.86;45.67;96473.97;10421569;28;20077;-69
2023/10/21 16:56:29;;;;;;;37.72;17.42;;;;;;;17.66;46.27;96485.56;10406658;28;20164;-70
2023/10/21 17:01:49;;;;;;;32.17;17.38;;;;;;;17.42;46.51;96499.88;10421008;28;20076;-70
2023/10/21 17:07:10;;;;;;;14.00;8.05;;;;;;;17.31;46.80;96497.53;10419818;28;20071;-69
2023/10/21 17:12:32;;;;;;;29.02;14.75;;;;;;;17.32;47.38;96496.84;10406000;28;20121;-70
2023/10/21 17:17:53;;;;;;;10.70;6.30;;;;;;;17.27;47.58;96498.13;10392316;28;20149;-70
2023/10/21 17:23:16;;;;;;;11.32;2.63;;;;;;;17.23;47.83;96503.69;10392300;28;20046;-71
2023/10/21 17:28:36;;;;;;;5.80;2.78;;;;;;;17.17;48.40;96507.09;10391251;28;20460;-71
2023/10/21 17:33:57;;;;;;;7.60;4.35;;;;;;;17.15;48.67;96509.16;10391485;28;20112;-71
2023/10/21 17:39:18;;;;;;;6.40;3.35;;;;;;;17.18;49.04;96516.28;10405185;28;20164;-71
2023/10/21 17:44:38;;;;;;;6.55;2.83;;;;;;;17.20;49.26;96509.97;10404612;28;20069;-71
2023/10/21 17:49:59;;;;;;;5.80;3.05;;;;;;;17.14;49.42;96525.34;10390943;28;20119;-70
2023/10/21 17:55:22;;;;;;;6.23;2.80;;;;;;;17.13;49.72;96528.84;10419132;28;20057;-71
2023/10/21 18:00:43;;;;;;;6.80;2.80;;;;;;;17.14;50.09;96535.91;10404441;28;20072;-72
2023/10/21 18:06:04;;;;;;;5.30;2.83;;;;;;;17.22;50.05;96541.03;10403490;28;20115;-71
2023/10/21 18:11:26;;;;;;;4.07;2.80;;;;;;;17.23;50.29;96548.81;10404238;28;20103;-70
2023/10/21 18:16:46;;;;;;;4.57;2.60;;;;;;;17.25;50.57;96546.03;10418541;28;20045;-71
2023/10/21 18:22:07;;;;;;;3.38;2.10;;;;;;;17.27;50.75;96543.25;10418278;28;20396;-71
2023/10/21 18:27:28;;;;;;;5.18;2.40;;;;;;;17.30;50.84;96549.66;10403239;28;20207;-70
2023/10/21 18:32:49;;;;;;;5.65;2.15;;;;;;;17.32;50.93;96556.06;10417790;28;20049;-71
2023/10/21 18:38:10;;;;;;;4.57;2.95;;;;;;;17.33;50.87;96551.16;10417845;28;20072;-70
2023/10/21 18:43:30;;;;;;;7.35;4.43;;;;;;;17.30;51.20;96558.13;10417476;28;20116;-70
2023/10/21 18:48:52;;;;;;;8.80;4.90;;;;;;;17.23;51.65;96554.44;10388867;28;20065;-71
2023/10/21 18:54:13;;;;;;;10.23;4.63;;;;;;;17.18;51.78;96561.41;10417074;28;20042;-70
2023/10/21 18:59:35;;;;;;;6.85;3.58;;;;;;;17.03;51.89;96563.16;10401826;28;20403;-71
2023/10/21 19:04:57;;;;;;;8.37;3.37;;;;;;;16.96;52.36;96560.84;10401978;28;20164;-70
2023/10/21 19:10:23;;;;;;;5.85;3.08;;;;;;;16.97;53.01;96565.81;10388164;28;20583;-71
2023/10/21 19:15:45;;;;;;;8.02;2.80;;;;;;;16.87;52.97;96571.22;10416523;28;20128;-70
2023/10/21 19:21:07;;;;;;;3.60;2.47;;;;;;;16.75;53.01;96560.38;10387884;28;20116;-71
2023/10/21 19:26:28;;;;;;;5.05;2.72;;;;;;;16.63;53.86;96565.69;10401204;28;20101;-71
2023/10/21 19:31:49;;;;;;;3.60;2.42;;;;;;;16.53;53.47;96566.16;10415692;28;20064;-71
2023/10/21 19:37:10;;;;;;;5.22;2.50;;;;;;;16.45;53.86;96563.13;10401138;28;20483;-69
2023/10/21 19:42:31;;;;;;;4.32;2.55;;;;;;;16.39;54.21;96565.75;10400784;28;20447;-71
2023/10/21 19:47:54;;;;;;;9.85;3.63;;;;;;;16.42;54.92;96566.56;10415084;28;20483;-70
2023/10/21 19:53:15;;;;;;;6.55;2.63;;;;;;;16.34;55.69;96563.53;10414978;28;20172;-71
2023/10/21 19:58:36;;;;;;;5.35;3.10;;;;;;;16.23;55.75;96571.72;10400238;28;20124;-73
2023/10/21 20:03:57;;;;;;;6.25;2.67;;;;;;;16.18;55.84;96575.06;10414940;28;20564;-71
2023/10/21 20:09:18;;;;;;;5.30;2.38;;;;;;;16.13;56.24;96563.00;10392475;28;20069;-73
2023/10/21 20:14:38;;;;;;;6.18;3.20;;;;;;;16.11;56.44;96571.34;10408375;28;20466;-71
2023/10/21 20:20:00;;;;;;;6.60;3.13;;;;;;;16.10;56.54;96578.38;10408282;28;20492;-72
2023/10/21 20:25:25;;;;;;;7.90;3.35;;;;;;;16.12;56.09;96581.25;10395563;28;20142;-71
2023/10/21 20:30:46;;;;;;;7.63;3.70;;;;;;;16.08;56.77;96575.50;10407885;28;20049;-71
2023/10/21 20:36:09;;;;;;;7.38;4.20;;;;;;;16.11;57.32;96574.16;10407718;28;20522;-72
2023/10/21 20:41:31;;;;;;;7.17;4.17;;;;;;;16.05;56.86;96562.06;10407823;28;20107;-71
2023/10/21 20:46:52;;;;;;;6.68;4.07;;;;;;;16.00;56.89;96555.56;10407510;28;20125;-71
2023/10/21 20:52:15;;;;;;;6.57;4.50;;;;;;;15.96;56.78;96544.22;10406998;28;20091;-72
2023/10/21 20:57:36;;;;;;;7.53;4.57;;;;;;;15.87;57.06;96532.03;10393094;28;20068;-71
2023/10/21 21:02:58;;;;;;;7.25;4.18;;;;;;;15.84;57.64;96544.59;10406351;28;20417;-71
2023/10/21 21:08:21;;;;;;;9.35;4.57;;;;;;;15.88;58.29;96544.00;10406648;28;20060;-70
2023/10/21 21:13:43;;;;;;;9.27;4.55;;;;;;;15.87;58.50;96542.56;10420985;28;20523;-70
2023/10/21 21:19:04;;;;;;;8.00;4.88;;;;;;;15.85;60.39;96539.69;10405657;28;20128;-70
2023/10/21 21:24:26;;;;;;;9.57;5.10;;;;;;;15.83;59.10;96536.84;10406304;28;20559;-70
2023/10/21 21:29:47;;;;;;;8.32;4.63;;;;;;;15.85;59.23;96534.06;10392135;28;20113;-70
2023/10/21 21:35:08;;;;;;;10.02;4.68;;;;;;;15.87;59.77;96525.69;10420273;28;20061;-70
2023/10/21 21:40:29;;;;;;;9.02;4.80;;;;;;;15.83;59.67;96531.19;10391592;28;20077;-70
2023/10/21 21:45:49;;;;;;;9.02;4.70;;;;;;;15.79;59.75;96531.78;10405307;28;20510;-70
2023/10/21 21:51:10;;;;;;;8.60;4.82;;;;;;;15.80;60.06;96541.66;10404885;28;20448;-71
2023/10/21 21:56:32;;;;;;;8.57;4.72;;;;;;;15.82;60.25;96544.53;10404686;28;20124;-70
2023/10/21 22:01:54;;;;;;;10.13;4.80;;;;;;;15.81;60.23;96534.66;10390945;28;20061;-71
2023/10/21 22:07:19;;;;;;;9.98;5.05;;;;;;;15.78;60.95;96540.91;10390380;28;20064;-71
2023/10/21 22:12:44;;;;;;;7.47;5.13;;;;;;;15.70;60.79;96550.53;10404714;28;20488;-71
2023/10/21 22:18:12;;;;;;;9.80;5.50;;;;;;;15.62;61.66;96547.50;10418559;28;20161;-71
2023/10/21 22:23:34;;;;;;;9.55;5.40;;;;;;;15.49;61.96;96539.34;10390119;28;20085;-71
2023/10/21 22:29:11;;;;;;;9.95;5.53;;;;;;;15.39;62.83;96556.63;10391657;28;20560;-70
2023/10/21 22:34:33;;;;;;;9.00;5.60;;;;;;;15.35;62.44;96556.53;10402869;28;20122;-70
2023/10/21 22:39:53;;;;;;;8.80;5.32;;;;;;;15.33;62.62;96562.06;10403121;28;20117;-71
2023/10/21 22:45:16;;;;;;;8.65;5.10;;;;;;;15.31;62.51;96565.53;10417422;28;20076;-71
2023/10/21 22:50:38;;;;;;;12.95;4.97;;;;;;;15.33;62.60;96576.84;10402430;28;20068;-71
2023/10/21 22:55:59;;;;;;;8.65;5.47;;;;;;;15.37;62.89;96587.50;10402528;28;20547;-70
2023/10/21 23:01:20;;;;;;;8.40;5.07;;;;;;;15.31;62.55;96587.31;10440785;22;20056;-70
2023/10/21 23:06:44;;;;;;;6.82;4.63;;;;;;;15.24;63.10;96611.69;10346133;28;20440;-70
2023/10/21 23:12:06;;;;;;;9.95;5.75;;;;;;;15.13;63.33;96613.47;10361612;28;20069;-70
2023/10/21 23:17:26;;;;;;;8.18;4.10;;;;;;;14.99;63.74;96603.88;10375527;28;20117;-71
2023/10/21 23:22:47;;;;;;;10.07;3.83;;;;;;;14.85;64.75;96618.19;10375596;28;20044;-70
2023/10/21 23:28:10;;;;;;;5.60;3.28;;;;;;;14.74;64.55;96596.75;10375129;28;20057;-70
2023/10/21 23:33:31;;;;;;;5.40;2.95;;;;;;;14.62;65.67;96601.97;10374265;28;20066;-70
2023/10/21 23:38:53;;;;;;;5.63;3.28;;;;;;;14.48;66.83;96594.50;10347434;28;20181;-71
2023/10/21 23:44:14;;;;;;;6.40;2.75;;;;;;;14.42;66.76;96599.88;10375284;28;20045;-70
2023/10/21 23:49:35;;;;;;;6.55;2.75;;;;;;;14.39;68.07;96589.97;10346226;28;20117;-71
2023/10/21 23:54:55;;;;;;;4.88;2.58;;;;;;;14.40;67.74;96594.19;10359538;28;20132;-70
